Flight Track Log - Related Links

Times and Time Zones

All times are in EDT time to prevent confusion due to time zone crossing. See the N498QS flight status page for this flight to view local times or setup timezone preferences in your user account.

Time Position Orientation Groundspeed Altitude Reporting Facility
EDT Latitude Longitude Course Direction KTS MPH feet Rate Location/Type
Sun 03:19:10 PM 33.7833 -118.1000 143° Southeast 180 207 3,000  Level Southern California TRACON
Sun 03:20:10 PM 33.7333 -118.1167 195° South 232 267 6,100 3,211 Climbing Southern California TRACON
Sun 03:21:04 PM 33.6667 -118.1500 203° Southwest 268 308 9,100 2,333 Climbing Southern California TRACON
Sun 03:22:16 PM 33.6131 -118.0703 129° Southeast 287 330 11,000 851 Climbing Los Angeles Center
Sun 03:23:18 PM 33.5664 -117.9653 118° Southeast 329 379 11,000  Level Los Angeles Center
Sun 03:24:00 PM 33.5486 -117.9079 143° Southeast  Level FlightAware Approximate
Sun 03:24:10 PM 33.5167 -117.8667 121° Southeast 346 398 11,000  Level Southern California TRACON
Sun 03:25:10 PM 33.4333 -117.7833 140° Southeast 346 398 11,000  Level Southern California TRACON
Sun 03:26:11 PM 33.3667 -117.7000 134° Southeast 349 402 11,000  Level Southern California TRACON
Sun 03:27:11 PM 33.3000 -117.6167 134° Southeast 348 400 11,000  Level Southern California TRACON
Sun 03:28:11 PM 33.2167 -117.5500 146° Southeast 347 399 11,000  Level Southern California TRACON
Sun 03:29:11 PM 33.1333 -117.5000 153° Southeast 353 406 11,000  Level Southern California TRACON
Sun 03:30:11 PM 33.0667 -117.4333 140° Southeast 350 403 11,000 73 Level Southern California TRACON
Sun 03:30:33 PM 33.0308 -117.4106 152° Southeast 349 402 11,100 -200 Climbing Los Angeles Center
Sun 03:31:11 PM 32.9833 -117.3667 142° Southeast 341 392 10,800 -857 Descending Southern California TRACON
Sun 03:32:11 PM 32.9167 -117.3000 140° Southeast 299 344 9,700 -1,200 Descending Southern California TRACON
Sun 03:33:11 PM 32.8833 -117.2167 115° Southeast 272 313 8,400 -1,248 Descending Southern California TRACON
Sun 03:33:52 PM 32.8603 -117.1803 127° Southeast 286 329 7,600 -932 Descending Los Angeles Center
Sun 03:34:54 PM 32.8303 -117.1117 117° Southeast 259 298 6,800 -1,139 Descending Los Angeles Center
Sun 03:35:11 PM 32.8167 -117.0833 120° Southeast 224 258 6,100 -623 Descending Southern California TRACON
Sun 03:36:11 PM 32.7833 -117.0167 121° Southeast 207 238 6,000 -48 Descending Southern California TRACON
Sun 03:37:17 PM 32.7667 -116.9500 107° East 214 246 6,000 -150 Level Southern California TRACON
Sun 03:38:11 PM 32.7667 -116.9000 90° East 198 228 5,700 -522 Descending Southern California TRACON
Sun 03:39:12 PM 32.7167 -116.8833 164° South 191 220 5,000 -857 Descending Southern California TRACON
Sun 03:40:17 PM 32.7000 -116.9500 253° West 172 198 3,900 -960 Descending Southern California TRACON
Sun 03:41:17 PM 32.6833 -117.0000 248° West 186 214 3,000 -1,000 Descending Southern California TRACON
Sun 03:42:17 PM 32.7000 -117.0667 287° West 193 222 1,900 -843 Descending Southern California TRACON
Sun 03:43:18 PM 32.7167 -117.1167 292° West 167 192 1,300 -730 Descending Southern California TRACON
Sun 03:44:12 PM 32.7333 -117.1500 301° West 143 165 500 -889 Descending Southern California TRACON

Login

Don't have an account? Register now (free) for customized features, flight alerts, and more!